Terminal Aerodrome Forecast
Issued by NWS

Home | Current Version | Previous Version | Text Only | Print | Product List | Glossary On
Versions: 1 2 3 4 5 6 7 8 9 10 11 12 13 14 15
000
FTUS43 KJKL 240900 AAA
TAFSME
TAF AMD
KSME 240931Z 2410/2506 VRB03KT P6SM -SHRA SCT015 OVC100
     FM241400 22011G22KT P6SM BKN100
     FM241900 22018G30KT P6SM -SHRA BKN022
     FM250000 26015G25KT P6SM VCSH OVC022=

USA.gov is the U.S. government's official web portal to all federal, state and local government web resources and services.